sensor_id;sensor_type;location;lat;lon;timestamp;P1;durP1;ratioP1;P2;durP2;ratioP2
31966;SDS011;18496;52.042;6.812;2022-11-22T00:01:52;20.20;;;7.22;;
31966;SDS011;18496;52.042;6.812;2022-11-22T00:03:56;17.92;;;6.90;;
31966;SDS011;18496;52.042;6.812;2022-11-22T00:06:00;14.43;;;6.85;;
31966;SDS011;18496;52.042;6.812;2022-11-22T00:08:03;14.07;;;6.93;;
31966;SDS011;18496;52.042;6.812;2022-11-22T00:10:08;16.45;;;7.25;;
31966;SDS011;18496;52.042;6.812;2022-11-22T00:12:13;15.07;;;7.53;;
31966;SDS011;18496;52.042;6.812;2022-11-22T00:14:17;13.48;;;7.15;;
31966;SDS011;18496;52.042;6.812;2022-11-22T00:16:20;21.35;;;6.90;;
31966;SDS011;18496;52.042;6.812;2022-11-22T00:18:24;13.30;;;5.68;;
31966;SDS011;18496;52.042;6.812;2022-11-22T00:20:28;13.43;;;6.60;;
31966;SDS011;18496;52.042;6.812;2022-11-22T00:22:31;21.35;;;7.07;;
31966;SDS011;18496;52.042;6.812;2022-11-22T00:24:35;17.40;;;6.90;;
31966;SDS011;18496;52.042;6.812;2022-11-22T00:26:39;17.05;;;6.53;;
31966;SDS011;18496;52.042;6.812;2022-11-22T00:28:43;15.23;;;6.60;;
31966;SDS011;18496;52.042;6.812;2022-11-22T00:30:47;14.23;;;6.07;;
31966;SDS011;18496;52.042;6.812;2022-11-22T00:32:50;20.40;;;6.50;;
31966;SDS011;18496;52.042;6.812;2022-11-22T00:34:54;19.02;;;6.78;;
31966;SDS011;18496;52.042;6.812;2022-11-22T00:36:57;21.00;;;6.90;;
31966;SDS011;18496;52.042;6.812;2022-11-22T00:39:01;18.92;;;7.53;;
31966;SDS011;18496;52.042;6.812;2022-11-22T00:41:05;11.60;;;6.20;;
31966;SDS011;18496;52.042;6.812;2022-11-22T00:43:09;16.88;;;6.72;;
31966;SDS011;18496;52.042;6.812;2022-11-22T00:45:12;13.45;;;5.95;;
31966;SDS011;18496;52.042;6.812;2022-11-22T00:47:16;21.33;;;7.20;;
31966;SDS011;18496;52.042;6.812;2022-11-22T00:49:20;15.20;;;6.07;;
31966;SDS011;18496;52.042;6.812;2022-11-22T00:51:23;16.63;;;6.30;;
31966;SDS011;18496;52.042;6.812;2022-11-22T00:53:27;18.23;;;6.68;;
31966;SDS011;18496;52.042;6.812;2022-11-22T00:55:30;16.27;;;6.95;;
31966;SDS011;18496;52.042;6.812;2022-11-22T00:57:34;17.92;;;5.97;;
31966;SDS011;18496;52.042;6.812;2022-11-22T00:59:37;19.80;;;6.32;;
31966;SDS011;18496;52.042;6.812;2022-11-22T01:01:41;16.75;;;6.72;;
31966;SDS011;18496;52.042;6.812;2022-11-22T01:03:45;16.20;;;6.43;;
31966;SDS011;18496;52.042;6.812;2022-11-22T01:05:48;19.58;;;5.95;;
31966;SDS011;18496;52.042;6.812;2022-11-22T01:07:52;13.75;;;5.80;;
31966;SDS011;18496;52.042;6.812;2022-11-22T01:09:56;12.43;;;5.40;;
31966;SDS011;18496;52.042;6.812;2022-11-22T01:11:59;14.80;;;5.72;;
31966;SDS011;18496;52.042;6.812;2022-11-22T01:14:03;14.10;;;5.32;;
31966;SDS011;18496;52.042;6.812;2022-11-22T01:16:07;11.48;;;4.93;;
31966;SDS011;18496;52.042;6.812;2022-11-22T01:18:12;12.70;;;5.00;;
31966;SDS011;18496;52.042;6.812;2022-11-22T01:20:15;16.48;;;5.40;;
31966;SDS011;18496;52.042;6.812;2022-11-22T01:22:19;10.05;;;5.05;;
31966;SDS011;18496;52.042;6.812;2022-11-22T01:24:23;10.98;;;4.75;;
31966;SDS011;18496;52.042;6.812;2022-11-22T01:26:26;17.50;;;5.13;;
31966;SDS011;18496;52.042;6.812;2022-11-22T01:28:30;14.82;;;5.35;;
31966;SDS011;18496;52.042;6.812;2022-11-22T01:30:34;11.55;;;4.88;;
31966;SDS011;18496;52.042;6.812;2022-11-22T01:32:37;17.90;;;5.20;;
31966;SDS011;18496;52.042;6.812;2022-11-22T01:34:41;10.63;;;5.03;;
31966;SDS011;18496;52.042;6.812;2022-11-22T01:36:44;14.65;;;5.57;;
31966;SDS011;18496;52.042;6.812;2022-11-22T01:38:48;13.50;;;5.28;;
31966;SDS011;18496;52.042;6.812;2022-11-22T01:40:52;14.07;;;4.95;;
31966;SDS011;18496;52.042;6.812;2022-11-22T01:42:57;13.02;;;4.80;;
31966;SDS011;18496;52.042;6.812;2022-11-22T01:45:48;18.50;;;5.35;;
31966;SDS011;18496;52.042;6.812;2022-11-22T01:47:32;11.65;;;4.93;;
31966;SDS011;18496;52.042;6.812;2022-11-22T01:51:43;12.73;;;6.13;;
31966;SDS011;18496;52.042;6.812;2022-11-22T01:53:52;17.42;;;5.55;;
31966;SDS011;18496;52.042;6.812;2022-11-22T01:55:59;16.02;;;6.15;;
31966;SDS011;18496;52.042;6.812;2022-11-22T01:58:05;14.10;;;5.47;;
31966;SDS011;18496;52.042;6.812;2022-11-22T02:00:12;11.60;;;6.05;;
31966;SDS011;18496;52.042;6.812;2022-11-22T02:02:21;13.13;;;5.55;;
31966;SDS011;18496;52.042;6.812;2022-11-22T02:04:25;13.02;;;5.35;;
31966;SDS011;18496;52.042;6.812;2022-11-22T02:06:35;11.15;;;5.50;;
31966;SDS011;18496;52.042;6.812;2022-11-22T02:09:09;14.02;;;5.38;;
31966;SDS011;18496;52.042;6.812;2022-11-22T02:11:14;18.65;;;5.82;;
31966;SDS011;18496;52.042;6.812;2022-11-22T02:13:20;11.70;;;5.32;;
31966;SDS011;18496;52.042;6.812;2022-11-22T02:15:25;12.80;;;5.03;;
31966;SDS011;18496;52.042;6.812;2022-11-22T02:17:29;14.88;;;5.25;;
31966;SDS011;18496;52.042;6.812;2022-11-22T02:19:37;13.43;;;4.78;;
31966;SDS011;18496;52.042;6.812;2022-11-22T02:21:47;14.77;;;5.28;;
31966;SDS011;18496;52.042;6.812;2022-11-22T02:24:00;13.73;;;5.53;;
31966;SDS011;18496;52.042;6.812;2022-11-22T02:26:10;11.15;;;4.68;;
31966;SDS011;18496;52.042;6.812;2022-11-22T02:28:14;11.68;;;4.93;;
31966;SDS011;18496;52.042;6.812;2022-11-22T02:30:18;13.23;;;4.85;;
31966;SDS011;18496;52.042;6.812;2022-11-22T02:32:22;9.70;;;4.90;;
31966;SDS011;18496;52.042;6.812;2022-11-22T02:34:25;12.43;;;5.50;;
31966;SDS011;18496;52.042;6.812;2022-11-22T02:36:30;12.52;;;4.88;;
31966;SDS011;18496;52.042;6.812;2022-11-22T02:38:39;10.90;;;5.20;;
31966;SDS011;18496;52.042;6.812;2022-11-22T02:40:47;10.38;;;5.05;;
31966;SDS011;18496;52.042;6.812;2022-11-22T02:45:38;16.27;;;5.38;;
31966;SDS011;18496;52.042;6.812;2022-11-22T02:47:42;16.80;;;4.88;;
31966;SDS011;18496;52.042;6.812;2022-11-22T02:49:45;14.70;;;5.00;;
31966;SDS011;18496;52.042;6.812;2022-11-22T02:51:49;14.45;;;5.13;;
31966;SDS011;18496;52.042;6.812;2022-11-22T02:53:54;11.30;;;5.10;;
31966;SDS011;18496;52.042;6.812;2022-11-22T02:55:58;16.05;;;5.45;;
31966;SDS011;18496;52.042;6.812;2022-11-22T02:58:02;16.23;;;5.10;;
31966;SDS011;18496;52.042;6.812;2022-11-22T03:00:08;15.45;;;4.82;;
31966;SDS011;18496;52.042;6.812;2022-11-22T03:02:12;15.65;;;5.38;;
31966;SDS011;18496;52.042;6.812;2022-11-22T03:04:16;10.70;;;5.45;;
31966;SDS011;18496;52.042;6.812;2022-11-22T03:06:28;10.52;;;4.35;;
31966;SDS011;18496;52.042;6.812;2022-11-22T03:08:32;8.63;;;4.25;;
31966;SDS011;18496;52.042;6.812;2022-11-22T03:10:36;11.27;;;4.80;;
31966;SDS011;18496;52.042;6.812;2022-11-22T03:12:39;13.75;;;5.18;;
31966;SDS011;18496;52.042;6.812;2022-11-22T03:14:43;14.98;;;5.68;;
31966;SDS011;18496;52.042;6.812;2022-11-22T03:16:47;14.25;;;5.22;;
31966;SDS011;18496;52.042;6.812;2022-11-22T03:18:51;11.75;;;5.05;;
31966;SDS011;18496;52.042;6.812;2022-11-22T03:20:54;15.98;;;4.90;;
31966;SDS011;18496;52.042;6.812;2022-11-22T03:23:01;12.90;;;5.45;;
31966;SDS011;18496;52.042;6.812;2022-11-22T03:25:05;9.48;;;5.13;;
31966;SDS011;18496;52.042;6.812;2022-11-22T03:27:08;12.13;;;4.68;;
31966;SDS011;18496;52.042;6.812;2022-11-22T03:29:12;14.50;;;4.93;;
31966;SDS011;18496;52.042;6.812;2022-11-22T03:31:16;18.17;;;5.32;;
31966;SDS011;18496;52.042;6.812;2022-11-22T03:33:19;9.90;;;4.72;;
31966;SDS011;18496;52.042;6.812;2022-11-22T03:35:23;15.15;;;5.18;;
31966;SDS011;18496;52.042;6.812;2022-11-22T03:37:26;11.93;;;4.63;;
31966;SDS011;18496;52.042;6.812;2022-11-22T03:39:30;7.28;;;4.40;;
31966;SDS011;18496;52.042;6.812;2022-11-22T03:41:34;12.82;;;5.13;;
31966;SDS011;18496;52.042;6.812;2022-11-22T03:43:37;14.95;;;5.45;;
31966;SDS011;18496;52.042;6.812;2022-11-22T03:45:44;15.90;;;5.57;;
31966;SDS011;18496;52.042;6.812;2022-11-22T03:47:49;19.17;;;5.70;;
31966;SDS011;18496;52.042;6.812;2022-11-22T03:49:52;11.10;;;5.25;;
31966;SDS011;18496;52.042;6.812;2022-11-22T03:51:56;20.25;;;5.93;;
31966;SDS011;18496;52.042;6.812;2022-11-22T03:53:59;18.30;;;5.60;;
31966;SDS011;18496;52.042;6.812;2022-11-22T03:56:03;13.95;;;5.22;;
31966;SDS011;18496;52.042;6.812;2022-11-22T03:58:07;17.27;;;5.60;;
31966;SDS011;18496;52.042;6.812;2022-11-22T04:00:11;14.63;;;4.70;;
31966;SDS011;18496;52.042;6.812;2022-11-22T04:02:15;14.18;;;5.20;;
31966;SDS011;18496;52.042;6.812;2022-11-22T04:04:19;18.85;;;5.35;;
31966;SDS011;18496;52.042;6.812;2022-11-22T04:06:22;22.67;;;6.25;;
31966;SDS011;18496;52.042;6.812;2022-11-22T04:08:26;14.85;;;5.57;;
31966;SDS011;18496;52.042;6.812;2022-11-22T04:10:30;15.35;;;5.00;;
31966;SDS011;18496;52.042;6.812;2022-11-22T04:12:33;19.20;;;5.47;;
31966;SDS011;18496;52.042;6.812;2022-11-22T04:14:38;16.98;;;5.28;;
31966;SDS011;18496;52.042;6.812;2022-11-22T04:17:00;12.50;;;4.90;;
31966;SDS011;18496;52.042;6.812;2022-11-22T04:19:04;25.02;;;5.38;;
31966;SDS011;18496;52.042;6.812;2022-11-22T04:21:07;13.48;;;4.82;;
31966;SDS011;18496;52.042;6.812;2022-11-22T04:23:29;26.65;;;5.38;;
31966;SDS011;18496;52.042;6.812;2022-11-22T04:25:34;21.70;;;5.13;;
31966;SDS011;18496;52.042;6.812;2022-11-22T04:27:39;20.92;;;5.72;;
31966;SDS011;18496;52.042;6.812;2022-11-22T04:29:42;16.77;;;5.15;;
31966;SDS011;18496;52.042;6.812;2022-11-22T04:31:46;16.63;;;4.32;;
31966;SDS011;18496;52.042;6.812;2022-11-22T04:34:09;14.02;;;4.88;;
31966;SDS011;18496;52.042;6.812;2022-11-22T04:36:13;21.17;;;4.78;;
31966;SDS011;18496;52.042;6.812;2022-11-22T04:38:17;13.68;;;4.80;;
31966;SDS011;18496;52.042;6.812;2022-11-22T04:40:21;15.15;;;4.57;;
31966;SDS011;18496;52.042;6.812;2022-11-22T04:42:24;10.85;;;4.55;;
31966;SDS011;18496;52.042;6.812;2022-11-22T04:44:46;16.40;;;4.20;;
31966;SDS011;18496;52.042;6.812;2022-11-22T04:46:50;14.98;;;4.25;;
31966;SDS011;18496;52.042;6.812;2022-11-22T04:48:54;19.45;;;4.88;;
31966;SDS011;18496;52.042;6.812;2022-11-22T04:50:57;17.90;;;4.88;;
31966;SDS011;18496;52.042;6.812;2022-11-22T04:53:19;15.50;;;3.80;;
31966;SDS011;18496;52.042;6.812;2022-11-22T04:55:23;21.88;;;4.43;;
31966;SDS011;18496;52.042;6.812;2022-11-22T04:57:27;14.50;;;4.07;;
31966;SDS011;18496;52.042;6.812;2022-11-22T04:59:30;22.20;;;4.40;;
31966;SDS011;18496;52.042;6.812;2022-11-22T05:01:34;12.82;;;3.50;;
31966;SDS011;18496;52.042;6.812;2022-11-22T05:03:38;13.85;;;4.10;;
31966;SDS011;18496;52.042;6.812;2022-11-22T05:05:42;18.33;;;4.60;;
31966;SDS011;18496;52.042;6.812;2022-11-22T05:07:46;19.63;;;4.15;;
31966;SDS011;18496;52.042;6.812;2022-11-22T05:09:50;20.17;;;4.30;;
31966;SDS011;18496;52.042;6.812;2022-11-22T05:11:53;20.75;;;4.63;;
31966;SDS011;18496;52.042;6.812;2022-11-22T05:13:57;18.80;;;4.30;;
31966;SDS011;18496;52.042;6.812;2022-11-22T05:16:01;15.02;;;3.95;;
31966;SDS011;18496;52.042;6.812;2022-11-22T05:18:06;11.52;;;3.58;;
31966;SDS011;18496;52.042;6.812;2022-11-22T05:20:10;20.10;;;3.88;;
31966;SDS011;18496;52.042;6.812;2022-11-22T05:22:14;20.00;;;4.60;;
31966;SDS011;18496;52.042;6.812;2022-11-22T05:24:17;20.83;;;5.95;;
31966;SDS011;18496;52.042;6.812;2022-11-22T05:26:22;23.10;;;8.07;;
31966;SDS011;18496;52.042;6.812;2022-11-22T05:28:29;17.25;;;3.97;;
31966;SDS011;18496;52.042;6.812;2022-11-22T05:30:37;13.27;;;3.88;;
31966;SDS011;18496;52.042;6.812;2022-11-22T05:32:41;13.32;;;3.90;;
31966;SDS011;18496;52.042;6.812;2022-11-22T05:34:45;16.63;;;3.40;;
31966;SDS011;18496;52.042;6.812;2022-11-22T05:36:48;17.25;;;4.10;;
31966;SDS011;18496;52.042;6.812;2022-11-22T05:38:52;14.98;;;4.32;;
31966;SDS011;18496;52.042;6.812;2022-11-22T05:40:56;21.67;;;5.97;;
31966;SDS011;18496;52.042;6.812;2022-11-22T05:43:00;12.30;;;3.97;;
31966;SDS011;18496;52.042;6.812;2022-11-22T05:45:04;12.55;;;4.10;;
31966;SDS011;18496;52.042;6.812;2022-11-22T05:47:09;13.82;;;4.03;;
31966;SDS011;18496;52.042;6.812;2022-11-22T05:49:12;14.90;;;3.47;;
31966;SDS011;18496;52.042;6.812;2022-11-22T05:51:17;23.50;;;5.30;;
31966;SDS011;18496;52.042;6.812;2022-11-22T05:53:22;16.55;;;4.18;;
31966;SDS011;18496;52.042;6.812;2022-11-22T05:55:25;21.63;;;4.68;;
31966;SDS011;18496;52.042;6.812;2022-11-22T05:57:30;10.20;;;3.40;;
31966;SDS011;18496;52.042;6.812;2022-11-22T05:59:35;22.42;;;4.68;;
31966;SDS011;18496;52.042;6.812;2022-11-22T06:01:38;12.13;;;3.58;;
31966;SDS011;18496;52.042;6.812;2022-11-22T06:03:42;13.27;;;3.85;;
31966;SDS011;18496;52.042;6.812;2022-11-22T06:05:50;21.88;;;4.85;;
31966;SDS011;18496;52.042;6.812;2022-11-22T06:07:58;25.55;;;3.95;;
31966;SDS011;18496;52.042;6.812;2022-11-22T06:10:02;17.17;;;3.50;;
31966;SDS011;18496;52.042;6.812;2022-11-22T06:12:06;13.38;;;3.88;;
31966;SDS011;18496;52.042;6.812;2022-11-22T06:14:10;13.10;;;3.38;;
31966;SDS011;18496;52.042;6.812;2022-11-22T06:16:13;13.40;;;4.45;;
31966;SDS011;18496;52.042;6.812;2022-11-22T06:18:18;16.90;;;3.88;;
31966;SDS011;18496;52.042;6.812;2022-11-22T06:20:21;19.65;;;3.95;;
31966;SDS011;18496;52.042;6.812;2022-11-22T06:22:25;18.40;;;3.88;;
31966;SDS011;18496;52.042;6.812;2022-11-22T06:24:28;13.75;;;3.72;;
31966;SDS011;18496;52.042;6.812;2022-11-22T06:26:32;14.15;;;3.97;;
31966;SDS011;18496;52.042;6.812;2022-11-22T06:28:36;14.35;;;4.05;;
31966;SDS011;18496;52.042;6.812;2022-11-22T06:30:41;14.30;;;4.57;;
31966;SDS011;18496;52.042;6.812;2022-11-22T06:32:45;21.48;;;3.72;;
31966;SDS011;18496;52.042;6.812;2022-11-22T06:34:48;18.13;;;4.20;;
31966;SDS011;18496;52.042;6.812;2022-11-22T06:36:52;16.83;;;3.80;;
31966;SDS011;18496;52.042;6.812;2022-11-22T06:38:55;12.32;;;3.67;;
31966;SDS011;18496;52.042;6.812;2022-11-22T06:43:04;16.10;;;4.28;;
31966;SDS011;18496;52.042;6.812;2022-11-22T06:45:08;22.10;;;4.70;;
31966;SDS011;18496;52.042;6.812;2022-11-22T06:47:12;21.45;;;4.57;;
31966;SDS011;18496;52.042;6.812;2022-11-22T06:49:15;18.27;;;4.22;;
31966;SDS011;18496;52.042;6.812;2022-11-22T06:51:23;13.80;;;3.60;;
31966;SDS011;18496;52.042;6.812;2022-11-22T06:53:31;13.45;;;4.22;;
31966;SDS011;18496;52.042;6.812;2022-11-22T06:55:36;23.02;;;4.72;;
31966;SDS011;18496;52.042;6.812;2022-11-22T06:57:39;19.63;;;3.70;;
31966;SDS011;18496;52.042;6.812;2022-11-22T06:59:43;25.20;;;4.03;;
31966;SDS011;18496;52.042;6.812;2022-11-22T07:01:47;21.45;;;4.05;;
31966;SDS011;18496;52.042;6.812;2022-11-22T07:03:51;21.58;;;3.58;;
31966;SDS011;18496;52.042;6.812;2022-11-22T07:06:00;16.77;;;4.13;;
31966;SDS011;18496;52.042;6.812;2022-11-22T07:08:04;11.30;;;3.40;;
31966;SDS011;18496;52.042;6.812;2022-11-22T07:10:07;26.08;;;4.43;;
31966;SDS011;18496;52.042;6.812;2022-11-22T07:12:11;19.98;;;3.25;;
31966;SDS011;18496;52.042;6.812;2022-11-22T07:14:15;10.52;;;3.33;;
31966;SDS011;18496;52.042;6.812;2022-11-22T07:16:19;18.33;;;4.32;;
31966;SDS011;18496;52.042;6.812;2022-11-22T07:18:24;14.82;;;3.78;;
31966;SDS011;18496;52.042;6.812;2022-11-22T07:20:29;12.88;;;3.47;;
31966;SDS011;18496;52.042;6.812;2022-11-22T07:22:32;11.98;;;3.90;;
31966;SDS011;18496;52.042;6.812;2022-11-22T07:24:36;13.35;;;3.10;;
31966;SDS011;18496;52.042;6.812;2022-11-22T07:26:40;22.88;;;4.10;;
31966;SDS011;18496;52.042;6.812;2022-11-22T07:28:43;9.25;;;3.00;;
31966;SDS011;18496;52.042;6.812;2022-11-22T07:30:48;16.98;;;4.00;;
31966;SDS011;18496;52.042;6.812;2022-11-22T07:32:51;15.77;;;3.90;;
31966;SDS011;18496;52.042;6.812;2022-11-22T07:34:55;18.58;;;3.55;;
31966;SDS011;18496;52.042;6.812;2022-11-22T07:36:58;15.48;;;3.33;;
31966;SDS011;18496;52.042;6.812;2022-11-22T07:39:02;17.98;;;4.00;;
31966;SDS011;18496;52.042;6.812;2022-11-22T07:41:06;15.10;;;3.13;;
31966;SDS011;18496;52.042;6.812;2022-11-22T07:43:10;16.08;;;3.55;;
31966;SDS011;18496;52.042;6.812;2022-11-22T07:45:14;21.38;;;3.35;;
31966;SDS011;18496;52.042;6.812;2022-11-22T07:47:18;13.85;;;3.08;;
31966;SDS011;18496;52.042;6.812;2022-11-22T07:49:21;15.65;;;3.35;;
31966;SDS011;18496;52.042;6.812;2022-11-22T07:51:25;19.65;;;3.75;;
31966;SDS011;18496;52.042;6.812;2022-11-22T07:53:29;23.00;;;4.53;;
31966;SDS011;18496;52.042;6.812;2022-11-22T07:55:32;19.50;;;3.63;;
31966;SDS011;18496;52.042;6.812;2022-11-22T07:57:36;12.70;;;3.20;;
31966;SDS011;18496;52.042;6.812;2022-11-22T07:59:40;14.43;;;3.58;;
31966;SDS011;18496;52.042;6.812;2022-11-22T08:01:43;21.23;;;4.45;;
31966;SDS011;18496;52.042;6.812;2022-11-22T08:03:47;19.33;;;3.92;;
31966;SDS011;18496;52.042;6.812;2022-11-22T08:05:57;24.33;;;3.97;;
31966;SDS011;18496;52.042;6.812;2022-11-22T08:08:02;10.50;;;3.53;;
31966;SDS011;18496;52.042;6.812;2022-11-22T08:10:06;12.50;;;3.58;;
31966;SDS011;18496;52.042;6.812;2022-11-22T08:12:10;18.90;;;4.25;;
31966;SDS011;18496;52.042;6.812;2022-11-22T08:14:13;18.10;;;3.83;;
31966;SDS011;18496;52.042;6.812;2022-11-22T08:16:17;20.17;;;3.85;;
31966;SDS011;18496;52.042;6.812;2022-11-22T08:18:21;9.65;;;3.17;;
31966;SDS011;18496;52.042;6.812;2022-11-22T08:20:24;17.92;;;3.63;;
31966;SDS011;18496;52.042;6.812;2022-11-22T08:22:28;15.18;;;4.05;;
31966;SDS011;18496;52.042;6.812;2022-11-22T08:24:32;11.77;;;4.13;;
31966;SDS011;18496;52.042;6.812;2022-11-22T08:26:36;17.65;;;3.85;;
31966;SDS011;18496;52.042;6.812;2022-11-22T08:28:40;16.20;;;4.32;;
31966;SDS011;18496;52.042;6.812;2022-11-22T08:30:44;17.95;;;4.13;;
31966;SDS011;18496;52.042;6.812;2022-11-22T08:32:48;20.60;;;4.25;;
31966;SDS011;18496;52.042;6.812;2022-11-22T08:34:53;17.05;;;4.57;;
31966;SDS011;18496;52.042;6.812;2022-11-22T08:36:57;14.88;;;4.22;;
31966;SDS011;18496;52.042;6.812;2022-11-22T08:39:01;20.88;;;4.43;;
31966;SDS011;18496;52.042;6.812;2022-11-22T08:41:05;16.00;;;4.65;;
31966;SDS011;18496;52.042;6.812;2022-11-22T08:43:09;22.38;;;4.88;;
31966;SDS011;18496;52.042;6.812;2022-11-22T08:45:12;22.08;;;4.80;;
31966;SDS011;18496;52.042;6.812;2022-11-22T08:47:16;21.15;;;4.07;;
31966;SDS011;18496;52.042;6.812;2022-11-22T08:49:20;25.42;;;5.82;;
31966;SDS011;18496;52.042;6.812;2022-11-22T08:51:23;16.70;;;3.97;;
31966;SDS011;18496;52.042;6.812;2022-11-22T08:53:27;20.38;;;4.40;;
31966;SDS011;18496;52.042;6.812;2022-11-22T08:55:32;25.58;;;4.88;;
31966;SDS011;18496;52.042;6.812;2022-11-22T08:57:35;21.70;;;4.93;;
31966;SDS011;18496;52.042;6.812;2022-11-22T08:59:39;16.25;;;4.22;;
31966;SDS011;18496;52.042;6.812;2022-11-22T09:01:42;16.73;;;4.88;;
31966;SDS011;18496;52.042;6.812;2022-11-22T09:03:46;19.17;;;5.03;;
31966;SDS011;18496;52.042;6.812;2022-11-22T09:05:50;17.42;;;5.70;;
31966;SDS011;18496;52.042;6.812;2022-11-22T09:07:53;22.83;;;5.25;;
31966;SDS011;18496;52.042;6.812;2022-11-22T09:09:57;19.30;;;5.13;;
31966;SDS011;18496;52.042;6.812;2022-11-22T09:12:01;17.20;;;4.13;;
31966;SDS011;18496;52.042;6.812;2022-11-22T09:14:05;18.05;;;5.00;;
31966;SDS011;18496;52.042;6.812;2022-11-22T09:16:16;15.45;;;3.88;;
31966;SDS011;18496;52.042;6.812;2022-11-22T09:18:21;12.55;;;3.90;;
31966;SDS011;18496;52.042;6.812;2022-11-22T09:20:24;19.08;;;4.53;;
31966;SDS011;18496;52.042;6.812;2022-11-22T09:22:28;14.75;;;3.60;;
31966;SDS011;18496;52.042;6.812;2022-11-22T09:24:32;16.70;;;4.40;;
31966;SDS011;18496;52.042;6.812;2022-11-22T09:26:36;25.23;;;5.38;;
31966;SDS011;18496;52.042;6.812;2022-11-22T09:28:40;31.13;;;5.47;;
31966;SDS011;18496;52.042;6.812;2022-11-22T09:30:43;15.07;;;4.15;;
31966;SDS011;18496;52.042;6.812;2022-11-22T09:32:47;20.60;;;4.28;;
31966;SDS011;18496;52.042;6.812;2022-11-22T09:34:50;18.75;;;4.65;;
31966;SDS011;18496;52.042;6.812;2022-11-22T09:36:54;17.35;;;3.83;;
31966;SDS011;18496;52.042;6.812;2022-11-22T09:38:58;10.55;;;3.78;;
31966;SDS011;18496;52.042;6.812;2022-11-22T09:41:03;19.52;;;4.05;;
31966;SDS011;18496;52.042;6.812;2022-11-22T09:43:35;14.30;;;3.33;;
31966;SDS011;18496;52.042;6.812;2022-11-22T09:46:08;11.35;;;3.80;;
31966;SDS011;18496;52.042;6.812;2022-11-22T09:52:45;12.55;;;3.35;;
31966;SDS011;18496;52.042;6.812;2022-11-22T09:54:58;13.75;;;3.33;;
31966;SDS011;18496;52.042;6.812;2022-11-22T09:57:07;13.88;;;3.60;;
31966;SDS011;18496;52.042;6.812;2022-11-22T09:59:16;10.10;;;3.42;;
31966;SDS011;18496;52.042;6.812;2022-11-22T10:01:44;19.17;;;3.97;;
31966;SDS011;18496;52.042;6.812;2022-11-22T10:03:56;20.15;;;3.95;;
31966;SDS011;18496;52.042;6.812;2022-11-22T10:06:08;11.20;;;3.78;;
31966;SDS011;18496;52.042;6.812;2022-11-22T10:10:41;15.50;;;3.10;;
31966;SDS011;18496;52.042;6.812;2022-11-22T10:12:54;12.82;;;3.65;;
31966;SDS011;18496;52.042;6.812;2022-11-22T10:17:17;22.00;;;4.30;;
31966;SDS011;18496;52.042;6.812;2022-11-22T10:19:42;11.25;;;3.42;;
31966;SDS011;18496;52.042;6.812;2022-11-22T10:21:52;17.83;;;4.00;;
31966;SDS011;18496;52.042;6.812;2022-11-22T10:23:56;14.95;;;4.07;;
31966;SDS011;18496;52.042;6.812;2022-11-22T10:26:04;10.50;;;3.38;;
31966;SDS011;18496;52.042;6.812;2022-11-22T10:28:17;16.85;;;2.97;;
31966;SDS011;18496;52.042;6.812;2022-11-22T10:30:35;10.18;;;2.33;;
31966;SDS011;18496;52.042;6.812;2022-11-22T10:32:51;15.95;;;2.97;;
31966;SDS011;18496;52.042;6.812;2022-11-22T11:01:02;7.00;;;2.10;;
31966;SDS011;18496;52.042;6.812;2022-11-22T11:05:54;4.55;;;1.38;;
31966;SDS011;18496;52.042;6.812;2022-11-22T11:08:28;4.75;;;1.25;;
31966;SDS011;18496;52.042;6.812;2022-11-22T11:10:37;8.45;;;1.40;;
31966;SDS011;18496;52.042;6.812;2022-11-22T11:14:59;3.90;;;1.48;;
31966;SDS011;18496;52.042;6.812;2022-11-22T11:17:07;4.53;;;1.35;;
31966;SDS011;18496;52.042;6.812;2022-11-22T11:19:18;3.60;;;1.40;;
31966;SDS011;18496;52.042;6.812;2022-11-22T11:21:25;6.70;;;1.55;;
31966;SDS011;18496;52.042;6.812;2022-11-22T11:23:29;6.30;;;2.83;;
31966;SDS011;18496;52.042;6.812;2022-11-22T11:25:34;20.00;;;6.07;;
31966;SDS011;18496;52.042;6.812;2022-11-22T11:27:42;6.32;;;3.40;;
31966;SDS011;18496;52.042;6.812;2022-11-22T11:29:46;5.97;;;1.90;;
31966;SDS011;18496;52.042;6.812;2022-11-22T11:32:15;3.90;;;1.33;;
31966;SDS011;18496;52.042;6.812;2022-11-22T11:36:29;8.65;;;2.03;;
31966;SDS011;18496;52.042;6.812;2022-11-22T11:39:18;5.00;;;1.65;;
31966;SDS011;18496;52.042;6.812;2022-11-22T11:43:35;7.28;;;3.30;;
31966;SDS011;18496;52.042;6.812;2022-11-22T11:45:44;5.43;;;1.70;;
31966;SDS011;18496;52.042;6.812;2022-11-22T11:47:48;6.45;;;1.90;;
31966;SDS011;18496;52.042;6.812;2022-11-22T11:49:52;7.47;;;2.28;;
31966;SDS011;18496;52.042;6.812;2022-11-22T11:51:56;3.58;;;1.55;;
31966;SDS011;18496;52.042;6.812;2022-11-22T11:54:09;4.85;;;1.80;;
31966;SDS011;18496;52.042;6.812;2022-11-22T11:58:51;5.65;;;1.92;;
31966;SDS011;18496;52.042;6.812;2022-11-22T12:00:56;10.88;;;2.55;;
31966;SDS011;18496;52.042;6.812;2022-11-22T12:03:00;9.90;;;2.85;;
31966;SDS011;18496;52.042;6.812;2022-11-22T12:07:20;7.20;;;1.88;;
31966;SDS011;18496;52.042;6.812;2022-11-22T12:09:36;6.47;;;2.28;;
31966;SDS011;18496;52.042;6.812;2022-11-22T12:11:46;8.55;;;2.20;;
31966;SDS011;18496;52.042;6.812;2022-11-22T12:13:54;6.82;;;2.38;;
31966;SDS011;18496;52.042;6.812;2022-11-22T12:16:17;6.03;;;1.83;;
31966;SDS011;18496;52.042;6.812;2022-11-22T12:21:38;7.70;;;2.20;;
31966;SDS011;18496;52.042;6.812;2022-11-22T12:25:44;7.97;;;2.78;;
31966;SDS011;18496;52.042;6.812;2022-11-22T12:27:48;8.43;;;2.15;;
31966;SDS011;18496;52.042;6.812;2022-11-22T12:29:52;6.75;;;2.30;;
31966;SDS011;18496;52.042;6.812;2022-11-22T12:31:57;10.30;;;2.00;;
31966;SDS011;18496;52.042;6.812;2022-11-22T12:34:13;9.57;;;1.58;;
31966;SDS011;18496;52.042;6.812;2022-11-22T12:36:26;6.07;;;2.60;;
31966;SDS011;18496;52.042;6.812;2022-11-22T12:38:49;4.93;;;2.08;;
31966;SDS011;18496;52.042;6.812;2022-11-22T12:40:56;8.98;;;2.33;;
31966;SDS011;18496;52.042;6.812;2022-11-22T12:43:05;9.32;;;2.17;;
31966;SDS011;18496;52.042;6.812;2022-11-22T12:45:33;6.13;;;2.03;;
31966;SDS011;18496;52.042;6.812;2022-11-22T12:47:42;6.72;;;2.25;;
31966;SDS011;18496;52.042;6.812;2022-11-22T12:50:10;6.80;;;1.90;;
31966;SDS011;18496;52.042;6.812;2022-11-22T12:54:56;8.18;;;2.05;;
31966;SDS011;18496;52.042;6.812;2022-11-22T12:57:12;5.50;;;2.17;;
31966;SDS011;18496;52.042;6.812;2022-11-22T13:01:44;6.10;;;1.83;;
31966;SDS011;18496;52.042;6.812;2022-11-22T13:06:13;6.20;;;2.42;;
31966;SDS011;18496;52.042;6.812;2022-11-22T13:12:47;8.15;;;1.63;;
31966;SDS011;18496;52.042;6.812;2022-11-22T13:14:53;6.57;;;1.90;;
31966;SDS011;18496;52.042;6.812;2022-11-22T13:16:57;8.18;;;1.83;;
31966;SDS011;18496;52.042;6.812;2022-11-22T13:19:07;10.25;;;1.70;;
31966;SDS011;18496;52.042;6.812;2022-11-22T13:21:26;4.68;;;1.80;;
31966;SDS011;18496;52.042;6.812;2022-11-22T13:26:40;6.45;;;2.15;;
31966;SDS011;18496;52.042;6.812;2022-11-22T13:28:56;8.70;;;1.90;;
31966;SDS011;18496;52.042;6.812;2022-11-22T13:33:32;7.45;;;2.08;;
31966;SDS011;18496;52.042;6.812;2022-11-22T13:35:38;10.32;;;2.45;;
31966;SDS011;18496;52.042;6.812;2022-11-22T13:37:43;4.07;;;1.65;;
31966;SDS011;18496;52.042;6.812;2022-11-22T13:39:49;4.80;;;1.73;;
31966;SDS011;18496;52.042;6.812;2022-11-22T13:41:59;7.75;;;1.80;;
31966;SDS011;18496;52.042;6.812;2022-11-22T13:50:59;7.07;;;1.80;;
31966;SDS011;18496;52.042;6.812;2022-11-22T13:55:25;2.63;;;1.20;;
31966;SDS011;18496;52.042;6.812;2022-11-22T13:57:35;9.13;;;1.50;;
31966;SDS011;18496;52.042;6.812;2022-11-22T13:59:39;6.75;;;1.90;;